createdAt,value
2022-12-01T00:02:26.329Z,3.60
2022-12-01T00:04:54.692Z,3.60
2022-12-01T00:07:25.104Z,3.60
2022-12-01T00:10:10.589Z,3.60
2022-12-01T00:12:43.703Z,3.60
2022-12-01T00:15:12.603Z,3.60
2022-12-01T00:17:43.748Z,3.60
2022-12-01T00:20:13.178Z,3.60
2022-12-01T00:22:44.154Z,3.60
2022-12-01T00:25:12.694Z,3.60
2022-12-01T00:27:42.599Z,3.60
2022-12-01T00:30:13.086Z,3.60
2022-12-01T00:32:41.451Z,3.50
2022-12-01T00:35:10.383Z,3.50
2022-12-01T00:37:38.948Z,3.50
2022-12-01T00:40:12.630Z,3.50
2022-12-01T00:42:42.274Z,3.40
2022-12-01T00:45:11.912Z,3.40
2022-12-01T00:47:40.149Z,3.40
2022-12-01T00:50:09.203Z,3.40
2022-12-01T00:52:37.450Z,3.50
2022-12-01T00:55:06.402Z,3.50
2022-12-01T00:57:34.606Z,3.50
2022-12-01T01:00:05.938Z,3.50
2022-12-01T01:02:46.852Z,3.50
2022-12-01T01:05:15.138Z,3.50
2022-12-01T01:07:43.389Z,3.50
2022-12-01T01:10:12.964Z,3.50
2022-12-01T01:12:41.204Z,3.50
2022-12-01T01:15:11.619Z,3.50
2022-12-01T01:17:39.871Z,3.50
2022-12-01T01:20:09.375Z,3.50
2022-12-01T01:22:37.634Z,3.50
2022-12-01T01:25:06.349Z,3.50
2022-12-01T01:27:36.160Z,3.50
2022-12-01T01:30:05.266Z,3.50
2022-12-01T01:32:40.819Z,3.50
2022-12-01T01:35:09.480Z,3.50
2022-12-01T01:37:38.460Z,3.50
2022-12-01T01:40:07.982Z,3.40
2022-12-01T01:42:36.239Z,3.40
2022-12-01T01:45:04.834Z,3.40
2022-12-01T01:47:36.553Z,3.30
2022-12-01T01:50:09.313Z,3.30
2022-12-01T01:52:41.748Z,3.20
2022-12-01T01:55:12.372Z,3.20
2022-12-01T01:57:41.628Z,3.20
2022-12-01T02:00:12.941Z,3.10
2022-12-01T02:02:44.978Z,3.10
2022-12-01T02:05:19.497Z,3.10
2022-12-01T02:07:48.598Z,3.10
2022-12-01T02:10:22.401Z,3.10
2022-12-01T02:13:07.311Z,3.10
2022-12-01T02:15:40.908Z,3.10
2022-12-01T02:18:20.112Z,3.10
2022-12-01T02:21:19.084Z,3.00
2022-12-01T02:24:31.917Z,3.00
2022-12-01T02:27:32.602Z,3.00
2022-12-01T02:30:11.680Z,3.00
2022-12-01T02:33:03.238Z,3.00
2022-12-01T02:35:38.390Z,3.00
2022-12-01T02:38:15.746Z,3.00
2022-12-01T02:40:47.955Z,3.00
2022-12-01T02:43:24.124Z,2.90
2022-12-01T02:45:57.656Z,2.90
2022-12-01T02:48:31.012Z,2.90
2022-12-01T02:51:03.081Z,2.90
2022-12-01T02:53:31.430Z,2.90
2022-12-01T02:56:00.154Z,2.90
2022-12-01T02:58:28.360Z,2.80
2022-12-01T03:01:08.740Z,2.90
2022-12-01T03:03:48.961Z,2.90
2022-12-01T03:06:23.375Z,2.90
2022-12-01T03:09:21.512Z,2.90
2022-12-01T03:11:59.876Z,2.90
2022-12-01T03:14:37.062Z,2.90
2022-12-01T03:17:09.087Z,3.00
2022-12-01T03:19:45.421Z,2.90
2022-12-01T03:22:18.121Z,3.00
2022-12-01T03:24:50.515Z,2.90
2022-12-01T03:27:23.434Z,3.00
2022-12-01T03:29:55.672Z,2.90
2022-12-01T03:32:28.128Z,2.80
2022-12-01T03:35:01.397Z,2.80
2022-12-01T03:37:34.674Z,2.80
2022-12-01T03:40:06.381Z,2.80
2022-12-01T03:42:38.628Z,2.80
2022-12-01T03:45:10.433Z,2.80
2022-12-01T03:47:40.573Z,2.80
2022-12-01T03:50:14.079Z,2.80
2022-12-01T03:53:09.780Z,2.80
2022-12-01T03:55:42.989Z,2.70
2022-12-01T03:58:14.887Z,2.70
2022-12-01T04:00:43.820Z,2.70
2022-12-01T04:03:36.405Z,2.80
2022-12-01T04:06:06.956Z,2.70
2022-12-01T04:08:37.286Z,2.80
2022-12-01T04:11:32.193Z,2.70
2022-12-01T04:14:00.149Z,2.80
2022-12-01T04:16:28.475Z,2.80
2022-12-01T04:18:56.727Z,2.80
2022-12-01T04:21:26.321Z,2.80
2022-12-01T04:24:01.905Z,2.80
2022-12-01T04:26:32.159Z,2.80
2022-12-01T04:29:00.560Z,2.80
2022-12-01T04:31:28.964Z,2.80
2022-12-01T04:33:58.098Z,2.80
2022-12-01T04:36:28.781Z,2.80
2022-12-01T04:38:57.196Z,2.80
2022-12-01T04:41:25.471Z,2.80
2022-12-01T04:43:54.689Z,2.80
2022-12-01T04:46:23.268Z,2.80
2022-12-01T04:48:51.557Z,2.80
2022-12-01T04:51:21.460Z,2.80
2022-12-01T04:53:51.388Z,2.90
2022-12-01T04:56:19.620Z,2.80
2022-12-01T04:58:48.006Z,2.90
2022-12-01T05:01:18.830Z,2.90
2022-12-01T05:03:49.448Z,2.90
2022-12-01T05:06:19.747Z,2.90
2022-12-01T05:08:48.432Z,2.90
2022-12-01T05:11:19.088Z,2.90
2022-12-01T05:13:49.952Z,2.90
2022-12-01T05:16:20.207Z,2.90
2022-12-01T05:19:13.326Z,2.90
2022-12-01T05:21:41.395Z,2.90
2022-12-01T05:24:10.652Z,3.00
2022-12-01T05:26:40.811Z,3.00
2022-12-01T05:29:09.263Z,3.00
2022-12-01T05:31:37.606Z,3.00
2022-12-01T05:34:05.871Z,3.00
2022-12-01T05:36:34.315Z,3.00
2022-12-01T05:39:02.575Z,3.00
2022-12-01T05:41:30.768Z,3.00
2022-12-01T05:44:00.440Z,2.90
2022-12-01T05:46:28.707Z,2.90
2022-12-01T05:48:56.975Z,2.80
2022-12-01T05:51:25.167Z,2.80
2022-12-01T05:53:53.400Z,2.80
2022-12-01T05:56:21.916Z,2.80
2022-12-01T05:58:50.123Z,2.80
2022-12-01T06:01:19.768Z,2.80
2022-12-01T06:03:48.280Z,2.80
2022-12-01T06:06:16.919Z,2.80
2022-12-01T06:08:45.132Z,2.70
2022-12-01T06:11:13.592Z,2.70
2022-12-01T06:13:42.291Z,2.70
2022-12-01T06:16:34.855Z,2.70
2022-12-01T06:19:03.098Z,2.70
2022-12-01T06:21:33.366Z,2.70
2022-12-01T06:24:01.607Z,2.70
2022-12-01T06:26:29.823Z,2.70
2022-12-01T06:28:58.361Z,2.80
2022-12-01T06:31:30.930Z,2.70
2022-12-01T06:34:00.819Z,2.70
2022-12-01T06:36:29.043Z,2.70
2022-12-01T06:38:57.488Z,2.70
2022-12-01T06:41:25.774Z,2.70
2022-12-01T06:43:54.873Z,2.60
2022-12-01T06:46:23.144Z,2.50
2022-12-01T06:48:51.448Z,2.50
2022-12-01T06:51:21.106Z,2.50
2022-12-01T06:53:49.314Z,2.50
2022-12-01T06:56:17.812Z,2.50
2022-12-01T06:58:46.374Z,2.50
2022-12-01T07:01:15.075Z,2.50
2022-12-01T07:03:49.003Z,2.50
2022-12-01T07:06:18.120Z,2.50
2022-12-01T07:08:47.804Z,2.50
2022-12-01T07:11:17.220Z,2.50
2022-12-01T07:13:46.445Z,2.50
2022-12-01T07:16:14.807Z,2.50
2022-12-01T07:18:44.675Z,2.50
2022-12-01T07:21:14.854Z,2.40
2022-12-01T07:23:43.429Z,2.40
2022-12-01T07:26:14.256Z,2.30
2022-12-01T07:28:42.547Z,2.30
2022-12-01T07:31:12.895Z,2.20
2022-12-01T07:33:41.705Z,2.20
2022-12-01T07:36:11.730Z,2.20
2022-12-01T07:38:40.654Z,2.10
2022-12-01T07:41:11.079Z,2.10
2022-12-01T07:43:41.386Z,2.20
2022-12-01T07:46:13.642Z,2.20
2022-12-01T07:48:44.367Z,2.20
2022-12-01T07:51:16.700Z,2.20
2022-12-01T07:53:45.473Z,2.20
2022-12-01T07:56:19.448Z,2.20
2022-12-01T07:58:49.335Z,2.20
2022-12-01T08:01:19.460Z,2.20
2022-12-01T08:03:49.411Z,2.20
2022-12-01T08:06:19.344Z,2.20
2022-12-01T08:08:48.015Z,2.20
2022-12-01T08:11:18.617Z,2.20
2022-12-01T08:13:57.440Z,2.20
2022-12-01T08:16:26.460Z,2.20
2022-12-01T08:18:55.529Z,2.20
2022-12-01T08:21:25.138Z,2.10
2022-12-01T08:23:57.644Z,2.20
2022-12-01T08:26:27.433Z,2.20
2022-12-01T08:28:57.924Z,2.20
2022-12-01T08:31:28.625Z,2.20
2022-12-01T08:33:57.486Z,2.20
2022-12-01T08:36:50.880Z,2.30
2022-12-01T08:39:19.092Z,2.30
2022-12-01T08:41:47.344Z,2.40
2022-12-01T08:44:17.062Z,2.40
2022-12-01T08:46:45.330Z,2.40
2022-12-01T08:49:13.570Z,2.50
2022-12-01T08:51:41.757Z,2.50
2022-12-01T08:54:13.224Z,2.50
2022-12-01T08:56:44.031Z,2.60
2022-12-01T08:59:18.604Z,2.60
2022-12-01T09:02:06.945Z,2.60
2022-12-01T09:04:35.511Z,2.60
2022-12-01T09:07:03.846Z,2.60
2022-12-01T09:09:36.703Z,2.70
2022-12-01T09:12:05.554Z,2.70
2022-12-01T09:14:39.169Z,2.70
2022-12-01T09:17:08.096Z,2.70
2022-12-01T09:19:36.601Z,2.80
2022-12-01T09:22:04.812Z,2.70
2022-12-01T09:24:33.136Z,2.80
2022-12-01T09:27:03.545Z,2.70
2022-12-01T09:29:32.512Z,2.80
2022-12-01T09:32:02.817Z,2.80
2022-12-01T09:34:31.048Z,2.80
2022-12-01T09:36:59.923Z,2.90
2022-12-01T09:39:37.452Z,2.90
2022-12-01T09:42:09.565Z,2.90
2022-12-01T09:44:42.698Z,2.90
2022-12-01T09:47:19.287Z,3.00
2022-12-01T09:49:54.421Z,2.90
2022-12-01T09:52:24.822Z,3.00
2022-12-01T09:54:55.662Z,3.00
2022-12-01T09:57:49.920Z,3.10
2022-12-01T10:00:22.198Z,3.10
2022-12-01T10:02:57.319Z,3.10
2022-12-01T10:05:29.167Z,3.10
2022-12-01T10:08:02.232Z,3.10
2022-12-01T10:10:34.276Z,3.10
2022-12-01T10:13:02.620Z,3.20
2022-12-01T10:15:59.298Z,3.20
2022-12-01T10:18:38.386Z,3.30
2022-12-01T10:21:15.661Z,3.30
2022-12-01T10:24:02.001Z,3.30
2022-12-01T10:26:36.391Z,3.40
2022-12-01T10:29:17.507Z,3.40
2022-12-01T10:31:54.202Z,3.40
2022-12-01T10:34:26.476Z,3.40
2022-12-01T10:36:54.942Z,3.40
2022-12-01T10:39:29.316Z,3.40
2022-12-01T10:42:03.828Z,3.40
2022-12-01T10:44:32.664Z,3.40
2022-12-01T10:47:01.506Z,3.50
2022-12-01T10:49:41.381Z,3.40
2022-12-01T10:52:27.430Z,3.50
2022-12-01T10:54:55.764Z,3.50
2022-12-01T10:57:25.047Z,3.50
2022-12-01T10:59:57.171Z,3.50
2022-12-01T11:02:28.485Z,3.50
2022-12-01T11:05:01.255Z,3.60
2022-12-01T11:07:33.232Z,3.60
2022-12-01T11:10:33.044Z,3.60
2022-12-01T11:13:23.676Z,3.60
2022-12-01T11:16:31.936Z,3.60
2022-12-01T11:19:10.814Z,3.60
2022-12-01T11:21:47.182Z,3.60
2022-12-01T11:24:29.052Z,3.60
2022-12-01T11:26:58.606Z,3.60
2022-12-01T11:29:32.578Z,3.60
2022-12-01T11:32:01.793Z,3.60
2022-12-01T11:34:34.338Z,3.50
2022-12-01T11:37:07.865Z,3.50
2022-12-01T11:39:38.618Z,3.50
2022-12-01T11:42:17.711Z,3.50
2022-12-01T11:44:51.709Z,3.40
2022-12-01T11:47:29.810Z,3.40
2022-12-01T11:50:03.077Z,3.40
2022-12-01T11:52:36.633Z,3.40
2022-12-01T11:55:22.163Z,3.40
2022-12-01T11:57:54.347Z,3.40
2022-12-01T12:00:25.396Z,3.30
2022-12-01T12:03:09.743Z,3.30
2022-12-01T12:06:32.383Z,3.30
2022-12-01T12:09:09.014Z,3.20
2022-12-01T12:11:48.925Z,3.20
2022-12-01T12:14:49.152Z,3.10
2022-12-01T12:17:48.732Z,3.10
2022-12-01T12:20:33.461Z,3.00
2022-12-01T12:23:18.572Z,3.00
2022-12-01T12:25:57.740Z,3.00
2022-12-01T12:28:38.118Z,2.90
2022-12-01T12:31:12.992Z,2.90
2022-12-01T12:34:00.909Z,2.90
2022-12-01T12:36:43.525Z,2.90
2022-12-01T12:39:26.979Z,2.80
2022-12-01T12:41:58.755Z,2.90
2022-12-01T12:44:57.402Z,2.90
2022-12-01T12:47:42.044Z,2.90
2022-12-01T12:50:28.487Z,2.90
2022-12-01T12:53:20.856Z,2.90
2022-12-01T12:55:52.516Z,3.00
2022-12-01T12:58:26.591Z,3.00
2022-12-01T13:00:59.996Z,3.00
2022-12-01T13:03:36.563Z,3.00
2022-12-01T13:06:10.285Z,2.90
2022-12-01T13:08:45.537Z,2.90
2022-12-01T13:11:23.520Z,2.80
2022-12-01T13:13:59.763Z,2.80
2022-12-01T13:16:42.394Z,2.70
2022-12-01T13:19:16.425Z,2.70
2022-12-01T13:21:47.005Z,2.70
2022-12-01T13:24:23.110Z,2.70
2022-12-01T13:26:55.836Z,2.70
2022-12-01T13:29:27.566Z,2.60
2022-12-01T13:31:56.394Z,2.60
2022-12-01T13:34:32.391Z,2.60
2022-12-01T13:37:00.708Z,2.70
2022-12-01T13:39:35.944Z,2.70
2022-12-01T13:42:08.015Z,2.70
2022-12-01T13:44:43.313Z,2.70
2022-12-01T13:47:40.719Z,2.80
2022-12-01T13:51:02.972Z,2.70
2022-12-01T13:53:33.817Z,2.70
2022-12-01T13:56:24.574Z,2.80
2022-12-01T13:58:54.209Z,2.80
2022-12-01T14:01:48.898Z,2.80
2022-12-01T14:04:35.201Z,2.90
2022-12-01T14:07:22.679Z,2.90
2022-12-01T14:09:53.292Z,2.90
2022-12-01T14:12:25.270Z,2.90
2022-12-01T14:14:58.173Z,2.90
2022-12-01T14:17:31.204Z,2.80
2022-12-01T14:20:19.883Z,2.80
2022-12-01T14:23:08.220Z,2.80
2022-12-01T14:25:37.661Z,2.80
2022-12-01T14:28:13.960Z,2.80
2022-12-01T14:31:05.117Z,2.70
2022-12-01T14:33:51.110Z,2.70
2022-12-01T14:36:30.549Z,2.70
2022-12-01T14:39:05.284Z,2.70
2022-12-01T14:42:00.910Z,2.60
2022-12-01T14:44:31.520Z,2.60
2022-12-01T14:47:06.395Z,2.60
2022-12-01T14:49:41.920Z,2.60
2022-12-01T14:52:29.256Z,2.50
2022-12-01T14:54:59.491Z,2.50
2022-12-01T14:57:34.287Z,2.50
2022-12-01T15:00:06.416Z,2.40
2022-12-01T15:03:01.538Z,2.30
2022-12-01T15:05:33.121Z,2.30
2022-12-01T15:08:40.408Z,2.30
2022-12-01T15:11:10.902Z,2.30
2022-12-01T15:13:48.806Z,2.20
2022-12-01T15:16:18.807Z,2.20
2022-12-01T15:18:47.457Z,2.20
2022-12-01T15:21:28.286Z,2.10
2022-12-01T15:24:00.105Z,2.10
2022-12-01T15:26:32.585Z,2.20
2022-12-01T15:29:26.668Z,2.20
2022-12-01T15:32:03.670Z,2.20
2022-12-01T15:34:34.325Z,2.20
2022-12-01T15:37:06.582Z,2.20
2022-12-01T15:39:37.438Z,2.20
2022-12-01T15:42:06.498Z,2.20
2022-12-01T15:44:37.480Z,2.20
2022-12-01T15:47:35.788Z,2.20
2022-12-01T15:50:05.703Z,2.20
2022-12-01T15:52:43.876Z,2.20
2022-12-01T15:55:25.911Z,2.20
2022-12-01T15:57:54.528Z,2.20
2022-12-01T16:00:24.588Z,2.30
2022-12-01T16:02:55.527Z,2.20
2022-12-01T16:05:26.979Z,2.20
2022-12-01T16:08:13.727Z,2.30
2022-12-01T16:10:42.328Z,2.40
2022-12-01T16:13:47.118Z,2.40
2022-12-01T16:16:31.704Z,2.40
2022-12-01T16:19:02.296Z,2.40
2022-12-01T16:21:34.017Z,2.30
2022-12-01T16:24:05.638Z,2.30
2022-12-01T16:26:35.083Z,2.20
2022-12-01T16:29:03.406Z,2.20
2022-12-01T16:31:33.063Z,2.20
2022-12-01T16:34:13.875Z,2.20
2022-12-01T16:36:46.932Z,2.20
2022-12-01T16:39:17.102Z,2.20
2022-12-01T16:41:46.892Z,2.20
2022-12-01T16:44:31.123Z,2.20
2022-12-01T16:46:59.439Z,2.20
2022-12-01T16:49:28.598Z,2.20
2022-12-01T16:51:57.582Z,2.30
2022-12-01T16:54:28.984Z,2.20
2022-12-01T16:56:57.287Z,2.20
2022-12-01T16:59:42.428Z,2.20
2022-12-01T17:02:11.573Z,2.10
2022-12-01T17:04:39.904Z,2.20
2022-12-01T17:07:08.292Z,2.20
2022-12-01T17:09:37.931Z,2.10
2022-12-01T17:12:06.832Z,2.10
2022-12-01T17:14:35.129Z,2.20
2022-12-01T17:17:03.469Z,2.10
2022-12-01T17:19:31.755Z,2.10
2022-12-01T17:22:00.096Z,2.10
2022-12-01T17:24:28.307Z,2.10
2022-12-01T17:26:57.884Z,2.10
2022-12-01T17:29:26.563Z,2.00
2022-12-01T17:31:54.880Z,2.00
2022-12-01T17:34:23.312Z,2.00
2022-12-01T17:36:51.869Z,2.00
2022-12-01T17:39:20.348Z,2.00
2022-12-01T17:41:48.615Z,2.00
2022-12-01T17:44:18.250Z,2.10
2022-12-01T17:46:46.554Z,2.10
2022-12-01T17:49:14.775Z,2.00
2022-12-01T17:51:43.921Z,2.10
2022-12-01T17:54:12.361Z,2.10
2022-12-01T17:56:40.682Z,2.10
2022-12-01T17:59:09.077Z,2.10
2022-12-01T18:01:39.497Z,2.10
2022-12-01T18:04:08.775Z,2.00
2022-12-01T18:06:37.203Z,2.00
2022-12-01T18:09:05.882Z,2.00
2022-12-01T18:11:34.570Z,2.00
2022-12-01T18:14:02.943Z,2.00
2022-12-01T18:16:33.200Z,2.10
2022-12-01T18:19:03.288Z,2.10
2022-12-01T18:21:31.623Z,2.10
2022-12-01T18:24:01.307Z,2.10
2022-12-01T18:26:30.786Z,2.10
2022-12-01T18:29:01.019Z,2.10
2022-12-01T18:31:30.772Z,2.10
2022-12-01T18:34:02.652Z,2.20
2022-12-01T18:36:34.197Z,2.20
2022-12-01T18:39:03.271Z,2.20
2022-12-01T18:41:31.803Z,2.10
2022-12-01T18:44:00.106Z,2.10
2022-12-01T18:46:29.065Z,2.10
2022-12-01T18:49:02.178Z,2.20
2022-12-01T18:51:33.043Z,2.10
2022-12-01T18:54:02.949Z,2.10
2022-12-01T18:56:31.318Z,2.10
2022-12-01T18:59:01.634Z,2.20
2022-12-01T19:01:32.342Z,2.20
2022-12-01T19:04:15.402Z,2.10
2022-12-01T19:06:46.672Z,2.10
2022-12-01T19:09:17.919Z,2.10
2022-12-01T19:11:46.219Z,2.20
2022-12-01T19:14:17.090Z,2.20
2022-12-01T19:16:45.813Z,2.20
2022-12-01T19:19:38.867Z,2.10
2022-12-01T19:22:08.486Z,2.10
2022-12-01T19:24:36.733Z,2.10
2022-12-01T19:27:05.519Z,2.10
2022-12-01T19:29:33.819Z,2.10
2022-12-01T19:32:26.993Z,2.00
2022-12-01T19:34:55.259Z,2.00
2022-12-01T19:37:24.954Z,2.00
2022-12-01T19:39:53.717Z,2.00
2022-12-01T19:42:21.982Z,1.90
2022-12-01T19:44:50.607Z,1.90
2022-12-01T19:47:22.240Z,1.90
2022-12-01T19:49:50.904Z,1.90
2022-12-01T19:52:19.080Z,1.80
2022-12-01T19:54:49.267Z,1.80
2022-12-01T19:57:17.767Z,1.80
2022-12-01T19:59:45.966Z,1.80
2022-12-01T20:02:14.388Z,1.70
2022-12-01T20:04:42.630Z,1.70
2022-12-01T20:07:10.864Z,1.80
2022-12-01T20:09:43.266Z,1.70
2022-12-01T20:12:15.639Z,1.70
2022-12-01T20:14:43.841Z,1.60
2022-12-01T20:17:15.845Z,1.60
2022-12-01T20:19:44.444Z,1.60
2022-12-01T20:22:12.687Z,1.60
2022-12-01T20:24:42.000Z,1.60
2022-12-01T20:27:10.325Z,1.60
2022-12-01T20:29:42.904Z,1.60
2022-12-01T20:32:11.345Z,1.60
2022-12-01T20:34:40.025Z,1.70
2022-12-01T20:37:08.317Z,1.70
2022-12-01T20:39:38.162Z,1.60
2022-12-01T20:42:06.710Z,1.70
2022-12-01T20:44:35.289Z,1.70
2022-12-01T20:47:05.343Z,1.70
2022-12-01T20:49:33.580Z,1.70
2022-12-01T20:52:01.779Z,1.70
2022-12-01T20:54:31.088Z,1.70
2022-12-01T20:57:00.033Z,1.80
2022-12-01T20:59:28.880Z,1.80
2022-12-01T21:01:57.302Z,1.80
2022-12-01T21:04:27.006Z,1.90
2022-12-01T21:06:56.993Z,1.90
2022-12-01T21:09:25.459Z,1.90
2022-12-01T21:15:09.892Z,2.00
2022-12-01T21:17:41.052Z,2.00
2022-12-01T21:20:21.911Z,2.00
2022-12-01T21:22:53.538Z,2.00
2022-12-01T21:25:23.956Z,2.00
2022-12-01T21:27:53.004Z,2.00
2022-12-01T21:30:25.752Z,2.00
2022-12-01T21:32:55.099Z,2.00
2022-12-01T21:35:26.122Z,2.00
2022-12-01T21:38:01.348Z,2.00
2022-12-01T21:40:29.776Z,2.00
2022-12-01T21:42:59.808Z,2.00
2022-12-01T21:45:33.015Z,2.00
2022-12-01T21:48:07.395Z,2.00
2022-12-01T21:50:37.025Z,2.00
2022-12-01T21:53:34.294Z,2.10
2022-12-01T21:56:03.060Z,2.10
2022-12-01T21:58:35.288Z,2.10
2022-12-01T22:01:08.988Z,2.00
2022-12-01T22:03:43.632Z,2.10
2022-12-01T22:06:31.134Z,2.10
2022-12-01T22:09:02.107Z,2.00
2022-12-01T22:11:32.140Z,2.10
2022-12-01T22:14:10.617Z,2.00
2022-12-01T22:16:42.004Z,2.00
2022-12-01T22:19:26.251Z,2.00
2022-12-01T22:22:00.314Z,2.10
2022-12-01T22:24:33.815Z,2.10
2022-12-01T22:27:14.404Z,2.10
2022-12-01T22:29:45.737Z,2.10
2022-12-01T22:32:45.692Z,2.10
2022-12-01T22:35:24.013Z,2.10
2022-12-01T22:37:54.993Z,2.10
2022-12-01T22:40:35.779Z,2.10
2022-12-01T22:43:25.463Z,2.10
2022-12-01T22:46:04.310Z,2.20
2022-12-01T22:48:37.135Z,2.20
2022-12-01T22:51:22.211Z,2.20
2022-12-01T22:53:57.538Z,2.20
2022-12-01T22:56:30.981Z,2.10
2022-12-01T22:59:15.754Z,2.20
2022-12-01T23:01:49.854Z,2.20
2022-12-01T23:04:27.604Z,2.10
2022-12-01T23:07:03.536Z,2.10
2022-12-01T23:09:39.458Z,2.10
2022-12-01T23:12:34.002Z,2.10
2022-12-01T23:15:16.765Z,2.10
2022-12-01T23:17:45.238Z,2.10
2022-12-01T23:20:29.160Z,2.10
2022-12-01T23:22:58.474Z,2.10
2022-12-01T23:25:29.362Z,2.10
2022-12-01T23:28:01.801Z,2.10
2022-12-01T23:30:30.300Z,2.10
2022-12-01T23:33:10.762Z,2.10
2022-12-01T23:35:42.570Z,2.10
2022-12-01T23:38:16.802Z,2.00
2022-12-01T23:40:46.881Z,2.00
2022-12-01T23:43:20.326Z,2.00
2022-12-01T23:45:50.967Z,2.00
2022-12-01T23:48:23.576Z,2.00
2022-12-01T23:50:54.454Z,2.00
2022-12-01T23:53:28.720Z,2.00
2022-12-01T23:56:04.773Z,2.00
2022-12-01T23:58:33.042Z,2.00
